AirNav   Air Wisconsin pilot careers
 
 1357 users online  

4NY9 Belmont Park Heliport
Elmont, New York, USA

GOING TO ELMONT?


FAA INFORMATION EFFECTIVE 29 MARCH 2018

Location

FAA Identifier: 4NY9
Lat/Long: 40-42-52.3680N / 073-42-37.4710W
40-42.872800N / 073-42.624517W
40.7145467 / -73.7104086
(estimated)
Elevation: 72 ft. / 22 m (estimated)
Variation: 13W (1985)
Time zone: UTC -4 (UTC -5 during Standard Time)
Zip code: 11001

Heliport Operations

Heliport use: Private use. Permission required prior to landing
Activation date: 04/1968
Control tower: no
ARTCC: NEW YORK CENTER
FSS: NEW YORK FLIGHT SERVICE STATION
Attendance: UNATNDD
Wind indicator: no
Segmented circle: no

Heliport Communications

WX ASOS at JFK (5 nm SW): PHONE 718-656-0956
WX ASOS at LGA (8 nm NW): PHONE 718-672-6317
WX ASOS at FRG (14 nm E): PHONE 631-752-8129
WX AWOS-3PT at JRB (14 nm W): 128.175 (212-425-1534)
WX ASOS at TEB (18 nm NW): PHONE 201-393-0855

Nearby radio navigation aids

VOR radial/distance  VOR name  Freq  Var
JFKr042/5.6KENNEDY VOR/DME115.9012W
LGAr132/8.3LA GUARDIA VOR/DME113.1012W
CRIr065/10.4CANARSIE VOR/DME112.3011W
TEBr128/17.9TETERBORO VOR/DME108.4011W
DPKr268/19.1DEER PARK VOR/DME117.7012W
COLr051/31.7COLTS NECK VOR/DME115.4011W
CMKr202/34.4CARMEL VOR/DME116.6012W
BDRr237/37.7BRIDGEPORT VOR/DME108.8012W

 
NDB name  Hdg/Dist  Freq  Var  ID
FRIKK264/11.040714WFR ..-. .-.
BRIDGE054/11.841412WOGY --- --. -.--
BABYLON294/15.027514WBBN -... -... -.
CHATHAM106/32.725413WCAT -.-. .- -

Heliport Services

Airframe service: NONE
Powerplant service: NONE

Runway Information

Helipad H1

Dimensions: 75 x 40 ft. / 23 x 12 m
Surface: turf
Traffic pattern: leftleft

Heliport Ownership and Management from official FAA records

Ownership: Privately-owned
Owner: PO BOX 90
JAMAICA, NY 11417
Phone (718) 659-2293
Manager: ROBERT J. SICA
PO BOX 90
JAMAICA, NY 11417
Phone 718-659-2293

Additional Remarks

A52-H1 GRANDSTAND 0.6MI W. TREES 0.1MI SW 0.1MI E.

Instrument Procedures

There are no published instrument procedures at 4NY9.

Some nearby airports with instrument procedures:

KJFK - John F Kennedy International Airport (5 nm SW)
KLGA - LaGuardia Airport (8 nm NW)
6N5 - East 34th Street Heliport (12 nm W)
KFRG - Republic Airport (14 nm E)
KJRB - Downtown Manhattan/Wall Street Heliport (14 nm W)
KJRA - West 30th St Heliport (14 nm W)
KTEB - Teterboro Airport (18 nm NW)
 
Loc | Ops | Rwys | IFR | FBO | Links
Com | Nav | Svcs | Stats | Notes

AirNav Hotels Sweepstakes
 
Area around 4NY9 (Belmont Park Heliport)
 
Road maps at: MapQuest Bing Google
 
Aerial photo
No photo
 
Sectional chart

 
Airport distance calculator
Flying to Belmont Park Heliport? Find the distance to fly.

From to 4NY9

Sunrise and sunset
Times for 23-Apr-2018
 Local
(UTC-4)
 Zulu
(UTC)
Morning civil twilight05:3609:36
Sunrise06:0510:05
Sunset19:4123:41
Evening civil twilight20:1000:10

Current date and time
Zulu (UTC)  23-Apr-2018 21:39:26
Local (UTC-4)  23-Apr-2018 17:39:26
 
METAR
KJFK 
6nm SW 
232051Z 14013KT 10SM FEW250 12/02 A3046 RMK AO2 SLP315 T01220022 56004
KLGA 
9nm NW 
232051Z 17012KT 10SM FEW250 17/M02 A3043 RMK AO2 SLP304 T01671022 56007
KNYC 
12nm W 
232051Z AUTO 17008G15KT 10SM CLR 15/00 A3046 RMK AO2 SLP306 T01500000 56003
KFRG 
13nm E 
232053Z 15012KT 10SM CLR 13/01 A3045 RMK AO2 SLP313 T01280011 56005
KJRB 
14nm W 
232115Z VRB04KT 10SM 14/03 RMK AO2 PWINO FZRANO RVRNO
KTEB 
18nm NW 
232051Z 17010KT 10SM CLR 18/M02 A3041 RMK AO2 SLP299 T01781022 56007
TAF
KJFK 
6nm SW 
231941Z 2320/2424 13013KT P6SM FEW300 FM232200 15012KT P6SM FEW300 FM240100 15009KT P6SM FEW300 FM240500 14005KT P6SM SCT300 FM241500 15012KT P6SM OVC200 FM242200 12014KT P6SM BKN060
KLGA 
9nm NW 
231941Z 2320/2424 06010KT P6SM FEW300 FM232200 12008KT P6SM FEW300 FM240500 13005KT P6SM SCT300 FM241500 14011KT P6SM OVC200 FM242200 12011KT P6SM BKN060
KTEB 
18nm NW 
231941Z 2320/2424 13006KT P6SM FEW300 FM232200 15007KT P6SM FEW300 FM240200 VRB02KT P6SM SCT300 FM241300 15006KT P6SM BKN200 FM241500 14009KT P6SM OVC200 FM242200 12007KT P6SM BKN040
NOTAMs
Click for the latest NOTAMs
NOTAMs are issued by the DoD/FAA and will open in a separate window not controlled by AirNav.

 

 
 

Would you like to see your business listed on this page?

 If your business provides an interesting product or service to pilots, flight crews, aircraft, or users of the Belmont Park Heliport, you should consider listing it here.  To start the listing process, click on the button below
 
Add a business
 

Other Pages about Belmont Park Heliport

Update a link
 
Copyright © AirNav, LLC. All rights reserved. Privacy Policy  Contact